Time;durP1;ratioP1;P1;durP2;ratioP2;P2;SDS_P1;SDS_P2;PMS_P1;PMS_P2;Temp;Humidity;BMP_temperature;BMP_pressure;BME280_temperature;BME280_humidity;BME280_pressure;Samples;Min_cycle;Max_cycle;Signal;HPM_P1;HPM_P2
2023/10/05 00:03:46;;;;;;;7.70;1.98;;;13.60;99.90;;;;;;5139330;27;20520;-66
2023/10/05 00:06:23;;;;;;;8.52;2.05;;;13.50;99.90;;;;;;5105172;27;20055;-66
2023/10/05 00:08:52;;;;;;;5.60;1.17;;;13.60;99.90;;;;;;5105683;27;20393;-66
2023/10/05 00:11:23;;;;;;;5.25;1.20;;;13.60;99.90;;;;;;5116385;27;20068;-66
2023/10/05 00:13:57;;;;;;;6.07;1.67;;;13.60;99.90;;;;;;5103752;28;20039;-66
2023/10/05 00:16:23;;;;;;;4.85;1.27;;;13.60;99.90;;;;;;5102229;27;20162;-66
2023/10/05 00:18:50;;;;;;;8.30;1.15;;;13.60;99.90;;;;;;5102208;27;20564;-66
2023/10/05 00:21:19;;;;;;;6.22;1.13;;;13.60;99.90;;;;;;5136049;27;20047;-66
2023/10/05 00:23:50;;;;;;;7.65;1.50;;;13.60;99.90;;;;;;5106140;28;20043;-66
2023/10/05 00:26:15;;;;;;;7.50;1.27;;;13.60;99.90;;;;;;5101872;27;20032;-66
2023/10/05 00:28:47;;;;;;;4.10;0.82;;;13.60;99.90;;;;;;5103290;27;20093;-66
2023/10/05 00:31:23;;;;;;;11.07;1.35;;;13.70;99.90;;;;;;5100663;27;20047;-66
2023/10/05 00:33:55;;;;;;;3.13;1.50;;;13.60;99.90;;;;;;5106714;27;20066;-66
2023/10/05 00:36:21;;;;;;;5.72;1.33;;;13.60;99.90;;;;;;5104284;27;20048;-66
2023/10/05 00:38:47;;;;;;;7.95;2.35;;;13.60;99.90;;;;;;5105273;27;20032;-66
2023/10/05 00:41:13;;;;;;;4.93;1.15;;;13.60;99.90;;;;;;5105180;27;20055;-66
2023/10/05 00:43:39;;;;;;;11.38;2.00;;;13.60;99.90;;;;;;5103408;27;20044;-66
2023/10/05 00:46:06;;;;;;;5.28;1.20;;;13.70;99.90;;;;;;5134109;27;20043;-66
2023/10/05 00:48:35;;;;;;;2.72;1.30;;;13.60;99.90;;;;;;5105274;27;20040;-66
2023/10/05 00:51:36;;;;;;;3.05;0.90;;;13.60;99.90;;;;;;5105250;27;20036;-66
2023/10/05 00:53:53;;;;;;;6.05;1.15;;;13.60;99.90;;;;;;5102847;27;20047;-66
2023/10/05 00:56:23;;;;;;;5.85;1.42;;;13.60;99.90;;;;;;5104077;27;20043;-66
2023/10/05 00:58:54;;;;;;;8.57;1.23;;;13.60;99.90;;;;;;5101710;27;20097;-66
2023/10/05 01:04:34;;;;;;;7.45;1.45;;;13.70;99.90;;;;;;5103981;27;19920;-66
2023/10/05 01:07:18;;;;;;;3.60;1.35;;;13.70;99.90;;;;;;5135229;27;20047;-67
2023/10/05 01:12:36;;;;;;;3.92;1.70;;;13.70;99.90;;;;;;5104020;27;20051;-66
2023/10/05 01:15:06;;;;;;;6.22;1.17;;;13.70;99.90;;;;;;5104272;27;20119;-66
2023/10/05 01:17:32;;;;;;;5.95;1.15;;;13.70;99.90;;;;;;5104531;27;20114;-66
2023/10/05 01:22:44;;;;;;;6.78;2.03;;;13.70;99.90;;;;;;5099923;28;20500;-66
2023/10/05 01:25:13;;;;;;;9.00;1.50;;;13.70;99.90;;;;;;5104463;27;20983;-66
2023/10/05 01:27:40;;;;;;;5.72;1.63;;;13.70;99.90;;;;;;5107250;27;20043;-66
2023/10/05 01:30:12;;;;;;;6.45;1.60;;;13.70;99.90;;;;;;5102533;27;20055;-66
2023/10/05 01:32:41;;;;;;;8.27;1.80;;;13.70;99.90;;;;;;5104601;28;20047;-66
2023/10/05 01:35:08;;;;;;;9.57;1.98;;;13.70;99.90;;;;;;5103175;27;20031;-66
2023/10/05 01:37:37;;;;;;;7.75;1.83;;;13.70;99.90;;;;;;5109128;27;20043;-66
2023/10/05 01:40:30;;;;;;;7.25;1.45;;;13.70;99.90;;;;;;5106289;27;20126;-66
2023/10/05 01:42:51;;;;;;;6.72;1.50;;;13.70;99.90;;;;;;5104089;28;20509;-66
2023/10/05 01:45:29;;;;;;;5.43;1.40;;;13.70;99.90;;;;;;5134425;27;20051;-66
2023/10/05 01:47:57;;;;;;;7.60;1.27;;;13.70;99.90;;;;;;5116126;27;20040;-66
2023/10/05 01:50:23;;;;;;;9.77;2.13;;;13.60;99.90;;;;;;5102128;28;20031;-66
2023/10/05 01:53:01;;;;;;;10.05;2.03;;;13.70;99.90;;;;;;5101167;28;20050;-66
2023/10/05 01:55:27;;;;;;;4.95;1.38;;;13.60;99.90;;;;;;5103446;28;20066;-66
2023/10/05 01:57:57;;;;;;;4.88;1.52;;;13.70;99.90;;;;;;5101898;28;20650;-66
2023/10/05 02:00:23;;;;;;;3.58;1.02;;;13.60;99.90;;;;;;5133603;27;20059;-66
2023/10/05 02:02:49;;;;;;;6.80;1.55;;;13.60;99.90;;;;;;5100415;28;20040;-66
2023/10/05 02:05:18;;;;;;;7.32;2.05;;;13.60;99.90;;;;;;5135291;27;20485;-66
2023/10/05 02:07:43;;;;;;;6.93;1.95;;;13.60;99.90;;;;;;5087698;28;20032;-66
2023/10/05 02:10:10;;;;;;;5.53;1.20;;;13.60;99.90;;;;;;5099711;28;20097;-66
2023/10/05 02:12:36;;;;;;;6.95;1.40;;;13.60;99.90;;;;;;5101420;28;20043;-66
2023/10/05 02:15:07;;;;;;;8.55;2.33;;;13.50;99.90;;;;;;5099186;28;20035;-66
2023/10/05 02:17:41;;;;;;;6.38;1.25;;;13.60;99.90;;;;;;5101815;28;20023;-66
2023/10/05 02:20:12;;;;;;;9.90;1.48;;;13.60;99.90;;;;;;5101926;28;20093;-66
2023/10/05 02:22:40;;;;;;;5.53;1.60;;;13.60;99.90;;;;;;5103583;27;20054;-66
2023/10/05 02:25:08;;;;;;;6.07;1.58;;;13.50;99.90;;;;;;5107586;27;20042;-66
2023/10/05 02:27:42;;;;;;;5.45;1.50;;;13.50;99.90;;;;;;5103313;27;20032;-66
2023/10/05 02:30:09;;;;;;;7.15;1.30;;;13.50;99.90;;;;;;5104814;27;20097;-66
2023/10/05 02:32:35;;;;;;;7.45;1.23;;;13.50;99.90;;;;;;5104521;27;20047;-66
2023/10/05 02:35:24;;;;;;;7.68;1.73;;;13.60;99.90;;;;;;5136227;27;20040;-66
2023/10/05 02:37:48;;;;;;;7.43;1.80;;;13.50;99.90;;;;;;5108230;27;20047;-66
2023/10/05 02:40:15;;;;;;;3.50;1.15;;;13.50;99.90;;;;;;5139542;27;20039;-66
2023/10/05 02:42:41;;;;;;;6.85;1.67;;;13.60;99.90;;;;;;5111795;27;20051;-66
2023/10/05 02:45:09;;;;;;;6.18;1.48;;;13.60;99.90;;;;;;5107069;27;20062;-66
2023/10/05 02:47:34;;;;;;;7.00;1.17;;;13.60;99.90;;;;;;5105131;27;20547;-66
2023/10/05 02:50:00;;;;;;;9.30;1.40;;;13.60;99.90;;;;;;5107389;27;20035;-66
2023/10/05 02:52:26;;;;;;;11.52;1.77;;;13.60;99.90;;;;;;5138016;27;20059;-66
2023/10/05 02:54:52;;;;;;;6.32;1.98;;;13.60;99.90;;;;;;5107825;27;20403;-66
2023/10/05 02:57:19;;;;;;;7.88;1.63;;;13.60;99.90;;;;;;5102294;27;20040;-66
2023/10/05 02:59:46;;;;;;;8.27;1.60;;;13.60;99.90;;;;;;5105072;27;20047;-66
2023/10/05 03:02:16;;;;;;;6.53;1.40;;;13.60;99.90;;;;;;5108592;27;20059;-66
2023/10/05 03:04:46;;;;;;;7.30;2.55;;;13.60;99.90;;;;;;5106727;27;20078;-66
2023/10/05 03:07:17;;;;;;;5.97;2.05;;;13.50;99.90;;;;;;5105540;27;20054;-66
2023/10/05 03:09:46;;;;;;;9.65;2.22;;;13.60;99.90;;;;;;5108223;27;20036;-66
2023/10/05 03:12:12;;;;;;;7.80;1.58;;;13.60;99.90;;;;;;5105128;27;20027;-66
2023/10/05 03:14:44;;;;;;;3.75;1.52;;;13.50;99.90;;;;;;5101616;28;20052;-66
2023/10/05 03:17:16;;;;;;;6.40;1.60;;;13.50;99.90;;;;;;5106140;27;20040;-66
2023/10/05 03:19:41;;;;;;;6.80;1.50;;;13.50;99.90;;;;;;5105068;28;20124;-66
2023/10/05 03:22:12;;;;;;;6.15;1.50;;;13.60;99.90;;;;;;5109614;27;20027;-66
2023/10/05 03:24:39;;;;;;;8.48;1.80;;;13.50;99.90;;;;;;5102683;27;20455;-66
2023/10/05 03:27:08;;;;;;;7.45;1.77;;;13.40;99.90;;;;;;5104933;27;20078;-66
2023/10/05 03:29:38;;;;;;;5.43;1.40;;;13.50;99.90;;;;;;5098225;28;20044;-66
2023/10/05 03:34:34;;;;;;;7.18;1.40;;;13.40;99.90;;;;;;5104231;28;20397;-66
2023/10/05 03:37:08;;;;;;;8.13;1.52;;;13.40;99.90;;;;;;5106564;28;20043;-66
2023/10/05 03:39:38;;;;;;;6.40;1.52;;;13.40;99.90;;;;;;5102755;28;20946;-66
2023/10/05 03:42:05;;;;;;;6.80;1.45;;;13.40;99.90;;;;;;5104550;27;20180;-66
2023/10/05 03:44:31;;;;;;;8.43;1.85;;;13.40;99.90;;;;;;5103879;27;20077;-66
2023/10/05 03:46:57;;;;;;;8.43;1.63;;;13.40;99.90;;;;;;5104110;27;20413;-66
2023/10/05 03:49:23;;;;;;;6.57;1.42;;;13.40;99.90;;;;;;5133610;27;20032;-66
2023/10/05 03:51:52;;;;;;;10.05;1.67;;;13.40;99.90;;;;;;5102440;27;20501;-66
2023/10/05 03:54:18;;;;;;;5.82;1.45;;;13.40;99.90;;;;;;5104728;27;20401;-66
2023/10/05 03:56:46;;;;;;;6.63;1.67;;;13.40;99.90;;;;;;5102449;28;20084;-66
2023/10/05 03:59:12;;;;;;;8.48;1.50;;;13.40;99.90;;;;;;5105710;27;20031;-66
2023/10/05 04:01:37;;;;;;;8.68;1.95;;;13.40;99.90;;;;;;5102324;27;20047;-66
2023/10/05 04:04:08;;;;;;;8.90;1.67;;;13.40;99.90;;;;;;5133454;27;20673;-66
2023/10/05 04:06:36;;;;;;;7.47;1.38;;;13.40;99.90;;;;;;5103984;28;20040;-66
2023/10/05 04:09:03;;;;;;;7.25;1.67;;;13.40;99.90;;;;;;5100923;28;20040;-66
2023/10/05 04:11:33;;;;;;;7.80;1.50;;;13.30;99.90;;;;;;5105552;27;20039;-66
2023/10/05 04:14:01;;;;;;;7.65;2.00;;;13.40;99.90;;;;;;5135969;27;20036;-66
2023/10/05 04:16:28;;;;;;;5.90;1.90;;;13.40;99.90;;;;;;5104228;27;20047;-66
2023/10/05 04:18:55;;;;;;;7.80;1.70;;;13.40;99.90;;;;;;5102083;27;20426;-66
2023/10/05 04:21:24;;;;;;;6.88;1.38;;;13.40;99.90;;;;;;5107162;27;20039;-66
2023/10/05 04:23:49;;;;;;;4.97;1.20;;;13.40;99.90;;;;;;5132573;27;20054;-66
2023/10/05 04:26:21;;;;;;;6.43;1.38;;;13.40;99.90;;;;;;5101142;27;20039;-66
2023/10/05 04:28:57;;;;;;;9.48;2.35;;;13.40;99.90;;;;;;5101792;27;20051;-66
2023/10/05 04:31:25;;;;;;;8.82;1.52;;;13.40;99.90;;;;;;5132875;27;20046;-66
2023/10/05 04:33:51;;;;;;;6.63;1.40;;;13.40;99.90;;;;;;5106701;27;20043;-66
2023/10/05 04:36:25;;;;;;;3.55;1.38;;;13.30;99.90;;;;;;5103202;27;20098;-66
2023/10/05 04:38:54;;;;;;;6.38;2.05;;;13.30;99.90;;;;;;5105582;27;20063;-66
2023/10/05 04:41:28;;;;;;;6.50;1.77;;;13.30;99.90;;;;;;5103255;27;20126;-66
2023/10/05 04:43:54;;;;;;;7.35;1.75;;;13.30;99.90;;;;;;5103225;27;20044;-66
2023/10/05 04:46:20;;;;;;;11.70;1.67;;;13.20;99.90;;;;;;5100333;27;20040;-66
2023/10/05 04:48:56;;;;;;;6.20;1.38;;;13.20;99.90;;;;;;5102543;27;20055;-66
2023/10/05 04:51:30;;;;;;;7.25;1.42;;;13.20;99.90;;;;;;5105397;27;20039;-66
2023/10/05 04:53:58;;;;;;;4.35;1.15;;;13.30;99.90;;;;;;5103876;27;20044;-66
2023/10/05 04:56:35;;;;;;;5.97;1.45;;;13.20;99.90;;;;;;5100177;27;20083;-66
2023/10/05 05:07:06;;;;;;;6.65;1.40;;;13.30;99.90;;;;;;5102951;27;20488;-66
2023/10/05 05:09:34;;;;;;;7.82;1.27;;;13.40;99.90;;;;;;5104909;27;20040;-66
2023/10/05 05:12:04;;;;;;;7.35;1.70;;;13.40;99.90;;;;;;5086162;28;20122;-66
2023/10/05 05:14:35;;;;;;;11.27;1.80;;;13.40;99.90;;;;;;5100755;27;20112;-66
2023/10/05 05:17:02;;;;;;;6.30;1.67;;;13.40;99.90;;;;;;5100577;27;20031;-66
2023/10/05 05:19:30;;;;;;;8.43;1.50;;;13.50;99.90;;;;;;5102050;27;20044;-66
2023/10/05 05:22:05;;;;;;;6.47;2.13;;;13.50;99.90;;;;;;5099647;28;20047;-66
2023/10/05 05:24:31;;;;;;;6.65;1.48;;;13.40;99.90;;;;;;5100127;27;20039;-66
2023/10/05 05:27:03;;;;;;;7.13;1.17;;;13.40;99.90;;;;;;5103671;27;20039;-66
2023/10/05 05:29:33;;;;;;;11.82;1.75;;;13.50;99.90;;;;;;5131387;27;20481;-66
2023/10/05 05:32:10;;;;;;;8.75;1.15;;;13.50;99.90;;;;;;5095420;27;20566;-66
2023/10/05 05:34:41;;;;;;;5.50;1.08;;;13.50;99.90;;;;;;5112277;27;20039;-66
2023/10/05 05:37:13;;;;;;;9.18;1.48;;;13.50;99.90;;;;;;5096816;27;20085;-66
2023/10/05 05:39:39;;;;;;;11.32;2.22;;;13.50;99.90;;;;;;5100563;27;20051;-66
2023/10/05 05:42:15;;;;;;;7.22;1.65;;;13.50;99.90;;;;;;5095690;28;20044;-66
2023/10/05 05:44:41;;;;;;;7.82;1.98;;;13.50;99.90;;;;;;5099187;27;20051;-66
2023/10/05 05:47:09;;;;;;;7.95;1.83;;;13.50;99.90;;;;;;5099834;28;20478;-66
2023/10/05 05:49:36;;;;;;;8.45;1.83;;;13.50;99.90;;;;;;5098446;28;20082;-66
2023/10/05 05:52:05;;;;;;;8.10;1.75;;;13.60;99.90;;;;;;5099471;27;20062;-66
2023/10/05 05:54:32;;;;;;;17.63;2.78;;;13.60;99.90;;;;;;5099337;28;20039;-66
2023/10/05 05:56:58;;;;;;;11.07;1.88;;;13.60;99.90;;;;;;5117620;27;20123;-66
2023/10/05 05:59:23;;;;;;;7.30;1.77;;;13.60;99.90;;;;;;5104056;27;20119;-67
2023/10/05 06:01:50;;;;;;;9.60;2.50;;;13.60;99.90;;;;;;5101498;27;20154;-66
2023/10/05 06:04:16;;;;;;;9.25;2.50;;;13.60;99.90;;;;;;5108199;27;20035;-66
2023/10/05 06:06:43;;;;;;;12.18;2.55;;;13.60;99.90;;;;;;5106910;27;20058;-66
2023/10/05 06:09:11;;;;;;;7.68;2.13;;;13.70;99.90;;;;;;5104550;28;20039;-66
2023/10/05 06:11:40;;;;;;;13.27;2.03;;;13.70;99.90;;;;;;5085988;28;20039;-66
2023/10/05 06:14:06;;;;;;;7.43;1.70;;;13.70;99.90;;;;;;5138740;27;20104;-66
2023/10/05 06:16:34;;;;;;;12.52;1.75;;;13.70;99.90;;;;;;5103499;27;20549;-66
2023/10/05 06:19:00;;;;;;;9.82;1.65;;;13.70;99.90;;;;;;5102891;27;20075;-66
2023/10/05 06:21:25;;;;;;;7.00;1.50;;;13.70;99.90;;;;;;5091888;27;20040;-66
2023/10/05 06:23:51;;;;;;;6.32;1.65;;;13.80;99.90;;;;;;5106777;27;20047;-66
2023/10/05 06:26:17;;;;;;;7.10;1.48;;;13.80;99.90;;;;;;5105205;27;20054;-66
2023/10/05 06:28:43;;;;;;;7.97;2.28;;;13.80;99.90;;;;;;5140587;27;20040;-66
2023/10/05 06:31:12;;;;;;;10.30;1.60;;;13.80;99.90;;;;;;5109931;27;20041;-66
2023/10/05 06:33:41;;;;;;;11.55;2.63;;;13.80;99.90;;;;;;5110726;27;20085;-66
2023/10/05 06:36:07;;;;;;;8.88;1.80;;;13.80;99.90;;;;;;5108908;27;20047;-66
2023/10/05 06:38:33;;;;;;;9.07;2.15;;;13.80;99.90;;;;;;5107276;27;20408;-66
2023/10/05 06:40:59;;;;;;;6.90;1.65;;;13.90;99.90;;;;;;5092665;28;20080;-66
2023/10/05 06:43:26;;;;;;;6.65;1.48;;;13.90;99.90;;;;;;5100763;27;20385;-66
2023/10/05 06:45:52;;;;;;;7.85;1.58;;;14.00;99.90;;;;;;5098842;27;20478;-66
2023/10/05 06:48:18;;;;;;;9.88;2.03;;;14.10;99.90;;;;;;5097407;27;20040;-66
2023/10/05 06:50:44;;;;;;;7.70;1.70;;;14.00;99.90;;;;;;5100410;27;20047;-66
2023/10/05 06:53:12;;;;;;;9.75;2.20;;;14.10;99.90;;;;;;5099792;27;20047;-66
2023/10/05 06:55:39;;;;;;;10.65;2.20;;;14.10;99.90;;;;;;5101767;27;20043;-66
2023/10/05 06:58:04;;;;;;;7.72;1.77;;;14.10;99.90;;;;;;5101417;27;20047;-66
2023/10/05 07:00:30;;;;;;;11.35;1.65;;;14.20;99.90;;;;;;5103397;27;20537;-66
2023/10/05 07:03:05;;;;;;;5.22;1.75;;;14.20;99.90;;;;;;5100160;27;20043;-66
2023/10/05 07:05:32;;;;;;;10.43;2.05;;;14.10;99.90;;;;;;5100035;27;20074;-66
2023/10/05 07:07:58;;;;;;;12.85;1.95;;;14.30;99.90;;;;;;5097162;27;20035;-66
2023/10/05 07:10:24;;;;;;;10.80;2.33;;;14.30;99.90;;;;;;5098582;27;20044;-66
2023/10/05 07:12:50;;;;;;;8.77;2.30;;;14.30;99.90;;;;;;5098943;27;20043;-66
2023/10/05 07:15:19;;;;;;;7.25;1.88;;;14.30;99.90;;;;;;5102855;27;20392;-66
2023/10/05 07:17:47;;;;;;;14.75;2.22;;;14.40;99.90;;;;;;5083518;28;20112;-66
2023/10/05 07:20:13;;;;;;;10.85;2.10;;;14.40;99.90;;;;;;5098988;27;20044;-66
2023/10/05 07:22:44;;;;;;;8.73;1.73;;;14.40;99.90;;;;;;5103567;27;20592;-66
2023/10/05 07:25:11;;;;;;;9.70;1.85;;;14.50;99.90;;;;;;5100475;27;20073;-66
2023/10/05 07:27:41;;;;;;;10.45;2.25;;;14.60;99.90;;;;;;5101319;27;20151;-66
2023/10/05 07:30:11;;;;;;;11.80;2.25;;;14.70;99.90;;;;;;5129697;27;20113;-66
2023/10/05 07:32:38;;;;;;;8.15;2.10;;;14.70;99.90;;;;;;5099748;27;20035;-66
2023/10/05 07:35:07;;;;;;;7.47;2.45;;;14.70;99.90;;;;;;5101693;27;20042;-66
2023/10/05 07:37:35;;;;;;;11.23;2.35;;;14.70;99.90;;;;;;5128283;27;20110;-66
2023/10/05 07:40:04;;;;;;;8.00;2.25;;;14.70;99.90;;;;;;5099890;27;20046;-66
2023/10/05 07:42:30;;;;;;;10.05;3.08;;;14.70;99.90;;;;;;5097579;27;20046;-66
2023/10/05 07:44:57;;;;;;;7.20;1.60;;;14.70;99.90;;;;;;5081456;27;20039;-66
2023/10/05 07:47:24;;;;;;;7.45;2.05;;;14.70;99.90;;;;;;5127844;27;20101;-66
2023/10/05 07:49:53;;;;;;;8.18;2.72;;;14.70;99.90;;;;;;5099731;27;20048;-66
2023/10/05 07:52:19;;;;;;;12.23;1.98;;;14.80;99.90;;;;;;5100235;27;20138;-66
2023/10/05 07:54:45;;;;;;;10.93;2.03;;;14.80;99.90;;;;;;5102059;27;20031;-66
2023/10/05 07:57:11;;;;;;;10.30;2.60;;;14.90;99.90;;;;;;5097582;27;20039;-66
2023/10/05 07:59:41;;;;;;;8.27;1.77;;;15.00;99.90;;;;;;5099272;27;20043;-66
2023/10/05 08:02:08;;;;;;;6.57;1.95;;;15.10;99.90;;;;;;5098736;27;20040;-66
2023/10/05 08:04:35;;;;;;;8.85;2.50;;;15.10;99.90;;;;;;5098136;27;20044;-66
2023/10/05 08:07:01;;;;;;;11.20;1.75;;;15.20;99.90;;;;;;5100157;27;20589;-66
2023/10/05 08:09:27;;;;;;;9.32;1.73;;;15.20;99.90;;;;;;5097130;27;20162;-66
2023/10/05 08:11:55;;;;;;;10.60;3.05;;;15.30;99.90;;;;;;5098951;27;20069;-66
2023/10/05 08:14:20;;;;;;;9.45;1.80;;;15.20;99.90;;;;;;5103133;27;20035;-66
2023/10/05 08:16:47;;;;;;;10.85;2.63;;;15.30;99.90;;;;;;5098909;27;20088;-66
2023/10/05 08:19:15;;;;;;;9.25;2.08;;;15.40;99.90;;;;;;5127920;27;20427;-66
2023/10/05 08:21:41;;;;;;;12.70;1.52;;;15.50;99.90;;;;;;5099160;27;20081;-66
2023/10/05 08:24:08;;;;;;;13.27;2.58;;;15.50;99.90;;;;;;5110575;27;20050;-66
2023/10/05 08:26:34;;;;;;;12.82;2.70;;;15.60;99.90;;;;;;5099641;27;20492;-66
2023/10/05 08:29:01;;;;;;;12.00;2.30;;;15.60;99.90;;;;;;5098012;27;20068;-66
2023/10/05 08:31:27;;;;;;;7.13;2.13;;;15.70;99.90;;;;;;5096654;27;20482;-66
2023/10/05 08:33:54;;;;;;;10.50;2.13;;;15.60;99.90;;;;;;5096578;27;20040;-66
2023/10/05 08:36:23;;;;;;;8.43;1.85;;;15.70;99.90;;;;;;5096465;27;21080;-66
2023/10/05 08:38:50;;;;;;;7.80;2.40;;;15.70;99.90;;;;;;5100026;27;20036;-66
2023/10/05 08:41:35;;;;;;;6.53;1.65;;;15.70;99.90;;;;;;5130123;27;20048;-66
2023/10/05 08:44:06;;;;;;;8.20;1.95;;;15.80;99.90;;;;;;5102023;27;20054;-66
2023/10/05 08:46:44;;;;;;;7.88;2.53;;;15.80;99.90;;;;;;5101468;27;20477;-66
2023/10/05 08:49:11;;;;;;;11.90;2.55;;;15.80;99.90;;;;;;5097735;27;20032;-66
2023/10/05 08:51:40;;;;;;;9.23;2.22;;;15.80;99.90;;;;;;5099756;27;20043;-66
2023/10/05 08:54:11;;;;;;;10.80;2.70;;;15.80;99.90;;;;;;5099797;27;20043;-66
2023/10/05 08:56:42;;;;;;;7.97;2.40;;;15.80;99.90;;;;;;5101386;27;20036;-66
2023/10/05 08:59:13;;;;;;;10.85;2.85;;;15.70;99.90;;;;;;5101798;27;20035;-66
2023/10/05 09:01:42;;;;;;;10.77;2.50;;;15.70;99.90;;;;;;5099714;27;20078;-66
2023/10/05 09:06:49;;;;;;;12.57;2.72;;;15.80;99.90;;;;;;5128767;27;20067;-66
2023/10/05 09:09:26;;;;;;;9.45;2.45;;;15.80;99.90;;;;;;5100303;27;20679;-66
2023/10/05 09:11:52;;;;;;;9.13;2.40;;;15.80;99.90;;;;;;5126172;27;20035;-66
2023/10/05 09:14:28;;;;;;;11.65;3.13;;;15.80;99.90;;;;;;5100340;27;20042;-66
2023/10/05 09:17:09;;;;;;;11.05;2.72;;;15.80;99.90;;;;;;5100128;27;20049;-66
2023/10/05 09:19:37;;;;;;;11.00;2.63;;;15.90;99.90;;;;;;5126321;27;20047;-66
2023/10/05 09:22:14;;;;;;;11.80;2.53;;;15.90;99.90;;;;;;5127796;27;20080;-66
2023/10/05 09:24:50;;;;;;;10.82;2.40;;;15.80;99.90;;;;;;5099752;27;20054;-66
2023/10/05 09:27:19;;;;;;;12.10;2.65;;;15.80;99.90;;;;;;5127902;27;20043;-66
2023/10/05 09:29:45;;;;;;;11.23;2.42;;;15.80;99.90;;;;;;5097120;27;20048;-66
2023/10/05 09:32:36;;;;;;;9.02;2.30;;;15.90;99.90;;;;;;5097210;27;20118;-66
2023/10/05 09:35:04;;;;;;;11.70;1.80;;;15.80;99.90;;;;;;5100389;27;20078;-66
2023/10/05 09:37:35;;;;;;;9.20;2.15;;;16.00;99.90;;;;;;5100694;27;20051;-66
2023/10/05 09:40:03;;;;;;;12.35;2.60;;;15.90;99.90;;;;;;5098358;27;20055;-66
2023/10/05 09:42:34;;;;;;;10.18;2.17;;;16.00;99.90;;;;;;5094953;27;20047;-66
2023/10/05 09:45:08;;;;;;;13.50;2.67;;;16.00;99.90;;;;;;5097314;27;20389;-66
2023/10/05 09:47:35;;;;;;;9.10;2.42;;;16.10;99.90;;;;;;5127514;27;20054;-66
2023/10/05 09:50:09;;;;;;;12.35;3.00;;;16.10;99.90;;;;;;5098110;27;20043;-66
2023/10/05 09:52:37;;;;;;;10.35;2.00;;;16.10;99.90;;;;;;5098611;28;20055;-66
2023/10/05 09:55:07;;;;;;;9.57;2.50;;;16.10;99.90;;;;;;5097470;28;20044;-66
2023/10/05 09:57:41;;;;;;;8.90;1.83;;;16.10;99.90;;;;;;5093758;28;20078;-66
2023/10/05 10:00:27;;;;;;;11.90;2.20;;;16.10;99.90;;;;;;5098686;28;20074;-66
2023/10/05 10:02:58;;;;;;;12.05;3.00;;;16.20;99.90;;;;;;5096844;28;20206;-66
2023/10/05 10:05:35;;;;;;;10.02;2.38;;;16.20;99.90;;;;;;5097397;28;20078;-66
2023/10/05 10:08:12;;;;;;;12.25;1.92;;;16.20;99.90;;;;;;5098266;28;20036;-66
2023/10/05 10:10:41;;;;;;;11.77;1.70;;;16.20;99.90;;;;;;5099506;28;20075;-66
2023/10/05 10:13:13;;;;;;;11.05;2.67;;;16.20;99.90;;;;;;5099455;28;20133;-66
2023/10/05 10:15:39;;;;;;;8.88;2.70;;;16.20;99.90;;;;;;5098715;28;20120;-66
2023/10/05 10:18:14;;;;;;;10.30;1.80;;;16.20;99.90;;;;;;5097701;28;20039;-66
2023/10/05 10:20:45;;;;;;;18.40;1.95;;;16.20;99.90;;;;;;5076525;28;20507;-66
2023/10/05 10:23:19;;;;;;;9.00;2.55;;;16.20;99.90;;;;;;5097601;28;20036;-66
2023/10/05 10:25:46;;;;;;;16.45;2.17;;;16.30;99.90;;;;;;5098094;28;20089;-66
2023/10/05 10:28:16;;;;;;;10.55;2.08;;;16.20;99.90;;;;;;5126157;27;20509;-66
2023/10/05 10:31:13;;;;;;;11.35;2.35;;;16.20;99.90;;;;;;5127042;27;20055;-66
2023/10/05 10:33:40;;;;;;;11.27;2.85;;;16.20;99.90;;;;;;5092667;28;20409;-66
2023/10/05 10:36:18;;;;;;;10.30;2.85;;;16.20;99.90;;;;;;5099320;28;20054;-66
2023/10/05 10:38:50;;;;;;;8.98;2.15;;;16.10;99.90;;;;;;5100318;28;20050;-66
2023/10/05 10:41:17;;;;;;;8.68;1.83;;;16.10;99.90;;;;;;5097423;28;20083;-66
2023/10/05 10:43:49;;;;;;;8.20;2.28;;;16.00;99.90;;;;;;5102356;27;20362;-66
2023/10/05 10:46:32;;;;;;;13.35;2.67;;;16.00;99.90;;;;;;5100787;27;20039;-66
2023/10/05 10:48:58;;;;;;;15.27;3.53;;;16.10;99.90;;;;;;5102904;27;20035;-66
2023/10/05 10:51:32;;;;;;;5.68;2.28;;;16.00;99.90;;;;;;5102093;27;20043;-66
2023/10/05 10:54:08;;;;;;;11.80;2.35;;;16.10;99.90;;;;;;5103138;27;20123;-66
2023/10/05 10:56:42;;;;;;;8.77;1.80;;;16.20;99.90;;;;;;5138656;27;20058;-66
2023/10/05 10:59:10;;;;;;;11.68;2.45;;;16.20;99.90;;;;;;5102563;27;20035;-66
2023/10/05 11:01:52;;;;;;;7.43;1.77;;;16.20;99.90;;;;;;5104058;27;20050;-66
2023/10/05 11:04:25;;;;;;;8.93;2.17;;;16.30;99.90;;;;;;5136475;27;20047;-66
2023/10/05 11:07:09;;;;;;;7.75;1.83;;;16.30;99.90;;;;;;5106031;27;20052;-66
2023/10/05 11:09:48;;;;;;;7.40;2.67;;;16.40;99.90;;;;;;5101763;27;20401;-66
2023/10/05 11:12:21;;;;;;;5.57;1.55;;;16.40;99.90;;;;;;5105534;27;20473;-66
2023/10/05 11:14:46;;;;;;;10.30;2.00;;;16.50;99.90;;;;;;5105026;27;20096;-66
2023/10/05 11:17:26;;;;;;;6.28;1.80;;;16.50;99.90;;;;;;5087597;27;20039;-66
2023/10/05 11:19:52;;;;;;;8.25;1.85;;;16.40;99.90;;;;;;5106107;27;20100;-66
2023/10/05 11:22:23;;;;;;;5.22;1.67;;;16.40;99.90;;;;;;5105826;27;20473;-66
2023/10/05 11:25:15;;;;;;;7.10;1.90;;;16.40;99.90;;;;;;5140915;27;20040;-66
2023/10/05 11:27:55;;;;;;;10.15;1.85;;;16.50;99.90;;;;;;5103475;27;20058;-66
2023/10/05 11:30:21;;;;;;;7.13;1.80;;;16.70;99.90;;;;;;5106752;27;20039;-66
2023/10/05 11:32:56;;;;;;;5.57;1.45;;;16.90;99.90;;;;;;5103070;27;20066;-66
2023/10/05 11:35:29;;;;;;;8.25;2.20;;;17.10;99.90;;;;;;5101990;27;20047;-66
2023/10/05 11:37:58;;;;;;;7.82;2.35;;;17.30;99.90;;;;;;5100079;27;20039;-66
2023/10/05 11:40:30;;;;;;;5.15;1.48;;;17.50;99.90;;;;;;5098180;27;20039;-66
2023/10/05 11:42:56;;;;;;;10.73;2.22;;;17.70;99.90;;;;;;5098648;27;20044;-66
2023/10/05 11:45:23;;;;;;;6.30;1.55;;;17.80;99.90;;;;;;5099289;27;20031;-66
2023/10/05 11:47:54;;;;;;;6.72;1.63;;;17.90;99.90;;;;;;5113109;27;20047;-66
2023/10/05 11:50:35;;;;;;;8.07;2.25;;;17.90;99.90;;;;;;5103402;27;20023;-66
2023/10/05 11:53:11;;;;;;;10.60;2.58;;;17.80;99.90;;;;;;5103114;27;20043;-66
2023/10/05 11:55:39;;;;;;;10.25;2.05;;;17.90;99.90;;;;;;5100841;27;20080;-66
2023/10/05 11:58:08;;;;;;;9.55;2.35;;;18.10;99.90;;;;;;5098786;27;20050;-66
2023/10/05 12:00:35;;;;;;;8.15;2.13;;;18.30;99.90;;;;;;5097937;27;20044;-66
2023/10/05 12:03:02;;;;;;;5.80;1.92;;;18.40;99.90;;;;;;5092191;27;20081;-66
2023/10/05 12:05:30;;;;;;;9.02;2.40;;;18.40;99.90;;;;;;5101486;27;20123;-66
2023/10/05 12:07:59;;;;;;;10.07;2.10;;;18.40;99.90;;;;;;5101969;27;20035;-66
2023/10/05 12:10:25;;;;;;;8.80;2.72;;;18.50;99.90;;;;;;5096902;27;20047;-66
2023/10/05 12:12:51;;;;;;;6.90;1.80;;;18.80;99.90;;;;;;5101527;27;20051;-66
2023/10/05 12:15:22;;;;;;;9.02;2.15;;;19.00;99.90;;;;;;5099239;27;21047;-66
2023/10/05 12:17:49;;;;;;;8.48;2.10;;;19.10;99.90;;;;;;5101131;27;20044;-66
2023/10/05 12:20:15;;;;;;;8.18;1.70;;;19.20;99.90;;;;;;5098785;27;20044;-66
2023/10/05 12:22:42;;;;;;;6.03;1.70;;;19.40;99.90;;;;;;5097848;27;20051;-66
2023/10/05 12:25:08;;;;;;;7.18;1.73;;;19.40;99.90;;;;;;5100122;27;20546;-66
2023/10/05 12:27:35;;;;;;;4.72;1.42;;;19.40;99.90;;;;;;5096837;27;21000;-66
2023/10/05 12:30:11;;;;;;;7.63;2.13;;;19.20;99.90;;;;;;5099970;27;20065;-66
2023/10/05 12:32:39;;;;;;;;;;;19.10;99.90;;;;;;5100117;27;20042;-66
2023/10/05 12:35:07;;;;;;;5.93;1.27;;;18.90;99.90;;;;;;5100041;27;19924;-66
2023/10/05 12:37:33;;;;;;;6.30;1.92;;;18.80;99.90;;;;;;5101432;27;20047;-66
2023/10/05 12:40:17;;;;;;;6.85;2.05;;;18.90;99.90;;;;;;5096152;27;20123;-66
2023/10/05 12:42:52;;;;;;;9.30;1.63;;;19.00;99.90;;;;;;5126353;27;20130;-66
2023/10/05 12:45:24;;;;;;;7.50;1.35;;;19.10;99.90;;;;;;5098452;27;20385;-66
2023/10/05 12:47:54;;;;;;;5.28;1.58;;;19.10;99.90;;;;;;5100812;27;20035;-66
2023/10/05 12:50:22;;;;;;;11.25;2.08;;;19.10;99.90;;;;;;5127578;27;22041;-66
2023/10/05 12:52:51;;;;;;;6.18;1.63;;;19.20;99.90;;;;;;5099676;27;20164;-66
2023/10/05 12:55:18;;;;;;;5.70;1.75;;;19.40;99.90;;;;;;5100286;27;20115;-66
2023/10/05 12:57:46;;;;;;;7.28;1.60;;;19.40;99.90;;;;;;5097488;27;20058;-66
2023/10/05 13:00:19;;;;;;;4.68;1.60;;;19.40;99.90;;;;;;5099286;27;20051;-66
2023/10/05 13:02:51;;;;;;;8.25;1.38;;;19.40;99.90;;;;;;5094334;27;20522;-66
2023/10/05 13:05:20;;;;;;;7.47;1.40;;;19.40;99.90;;;;;;5097367;27;20045;-66
2023/10/05 13:07:47;;;;;;;8.20;1.85;;;19.40;99.90;;;;;;5099085;27;20046;-66
2023/10/05 13:10:21;;;;;;;6.60;1.33;;;19.40;99.90;;;;;;5098016;28;20038;-66
2023/10/05 13:12:48;;;;;;;7.60;1.23;;;19.40;99.90;;;;;;5097643;27;20050;-66
2023/10/05 13:15:15;;;;;;;9.30;1.63;;;19.50;99.90;;;;;;5095640;27;20032;-66
2023/10/05 13:17:45;;;;;;;6.55;1.58;;;19.50;99.90;;;;;;5097537;27;20134;-66
2023/10/05 13:20:15;;;;;;;5.50;1.67;;;19.70;99.90;;;;;;5100344;27;20132;-66
2023/10/05 13:22:44;;;;;;;5.97;1.60;;;19.70;99.90;;;;;;5097128;27;20039;-66